Time;durP1;ratioP1;P1;durP2;ratioP2;P2;SDS_P1;SDS_P2;PMS_P1;PMS_P2;Temp;Humidity;BMP_temperature;BMP_pressure;BME280_temperature;BME280_humidity;BME280_pressure;Samples;Min_cycle;Max_cycle;Signal;HPM_P1;HPM_P2
2021/12/14 00:01:45;;;;;;;2.22;1.25;;;23.80;39.20;;;;;;5024014;28;20060;-46
2021/12/14 00:04:28;;;;;;;2.20;1.30;;;23.70;39.20;;;;;;5023233;28;20037;-45
2021/12/14 00:06:55;;;;;;;2.33;1.30;;;23.70;39.30;;;;;;5024072;28;20029;-46
2021/12/14 00:09:28;;;;;;;2.88;1.00;;;23.70;39.20;;;;;;5024377;28;20064;-46
2021/12/14 00:17:08;;;;;;;2.47;1.10;;;23.70;39.20;;;;;;5022795;28;20026;-46
2021/12/14 00:19:34;;;;;;;2.28;1.30;;;23.70;39.20;;;;;;5023799;28;20030;-46
2021/12/14 00:22:06;;;;;;;2.40;1.20;;;23.60;39.20;;;;;;5004957;28;20141;-45
2021/12/14 00:24:34;;;;;;;2.60;1.20;;;23.60;39.10;;;;;;5018336;28;20033;-46
2021/12/14 00:27:05;;;;;;;1.83;0.90;;;23.60;39.10;;;;;;5022395;28;20021;-46
2021/12/14 00:29:35;;;;;;;2.63;1.23;;;23.60;39.20;;;;;;5022070;28;20064;-46
2021/12/14 00:32:19;;;;;;;2.35;1.08;;;23.60;39.10;;;;;;5022655;28;20084;-46
2021/12/14 00:34:47;;;;;;;1.77;1.00;;;23.50;39.10;;;;;;5021881;28;20061;-46
2021/12/14 00:37:22;;;;;;;2.45;1.40;;;23.60;39.10;;;;;;5023475;28;20044;-46
2021/12/14 00:39:49;;;;;;;2.47;1.27;;;23.60;39.20;;;;;;5022425;28;20440;-46
2021/12/14 00:42:15;;;;;;;4.25;1.23;;;23.50;39.20;;;;;;5023351;28;20145;-46
2021/12/14 00:44:42;;;;;;;2.75;1.35;;;23.50;39.30;;;;;;5023124;28;20036;-46
2021/12/14 00:47:07;;;;;;;1.88;1.13;;;23.50;39.30;;;;;;5022750;28;20037;-46
2021/12/14 00:49:34;;;;;;;2.10;1.23;;;23.50;39.40;;;;;;5024195;28;20677;-46
2021/12/14 00:52:01;;;;;;;2.63;1.40;;;23.50;39.40;;;;;;5026965;28;20450;-46
2021/12/14 00:54:27;;;;;;;2.53;1.30;;;23.50;39.40;;;;;;5023392;28;20049;-46
2021/12/14 00:56:53;;;;;;;2.20;1.10;;;23.40;40.00;;;;;;5022607;28;20079;-46
2021/12/14 00:59:21;;;;;;;3.00;1.58;;;23.50;39.40;;;;;;5023828;28;20030;-46
2021/12/14 01:01:56;;;;;;;1.85;1.00;;;23.50;39.40;;;;;;4982375;28;1152949;-46
2021/12/14 01:04:26;;;;;;;2.03;1.02;;;23.40;39.30;;;;;;5022979;28;20115;-45
2021/12/14 01:06:52;;;;;;;2.50;1.40;;;23.40;39.30;;;;;;5024399;28;20025;-45
2021/12/14 01:09:26;;;;;;;2.17;1.20;;;23.40;39.20;;;;;;5023998;28;20845;-46
2021/12/14 01:11:57;;;;;;;2.67;1.30;;;23.40;39.10;;;;;;5004452;28;20034;-46
2021/12/14 01:14:45;;;;;;;1.80;1.10;;;23.40;39.20;;;;;;5004077;28;20073;-46
2021/12/14 01:17:27;;;;;;;1.50;1.00;;;23.40;39.10;;;;;;5004419;28;20030;-46
2021/12/14 01:19:58;;;;;;;1.83;1.17;;;23.30;39.10;;;;;;5017881;28;20026;-46
2021/12/14 01:22:44;;;;;;;2.15;1.10;;;23.30;39.70;;;;;;5023554;28;20113;-46
2021/12/14 01:25:31;;;;;;;1.65;1.00;;;23.30;39.10;;;;;;5023995;28;20508;-46
2021/12/14 01:28:05;;;;;;;2.35;1.23;;;23.30;39.10;;;;;;5024026;28;20033;-46
2021/12/14 01:31:15;;;;;;;2.72;1.20;;;23.30;39.00;;;;;;5023736;28;20474;-46
2021/12/14 01:33:45;;;;;;;1.70;0.98;;;23.30;39.10;;;;;;5003616;28;20038;-46
2021/12/14 01:36:25;;;;;;;1.90;0.95;;;23.30;39.00;;;;;;5005549;28;20022;-46
2021/12/14 01:39:20;;;;;;;2.05;1.10;;;23.30;39.10;;;;;;5023973;28;20029;-46
2021/12/14 01:41:50;;;;;;;1.60;0.95;;;23.30;39.00;;;;;;5023858;28;20033;-46
2021/12/14 01:44:16;;;;;;;1.98;1.08;;;23.30;39.00;;;;;;5023758;28;20033;-46
2021/12/14 01:46:53;;;;;;;1.98;1.27;;;23.30;39.00;;;;;;5024122;28;20496;-46
2021/12/14 01:49:19;;;;;;;2.08;1.08;;;23.20;38.90;;;;;;5023875;28;20635;-46
2021/12/14 01:51:48;;;;;;;2.95;1.17;;;23.30;38.90;;;;;;5043044;28;20029;-45
2021/12/14 01:54:19;;;;;;;2.30;1.20;;;23.20;38.90;;;;;;5043392;28;20116;-46
2021/12/14 01:56:45;;;;;;;2.08;0.98;;;23.20;38.90;;;;;;5043532;28;20108;-45
2021/12/14 01:59:23;;;;;;;1.92;1.15;;;23.20;38.90;;;;;;5041804;28;20109;-46
2021/12/14 02:02:08;;;;;;;1.75;1.10;;;23.20;38.80;;;;;;5025706;28;20506;-46
2021/12/14 02:04:39;;;;;;;2.55;1.30;;;23.20;38.90;;;;;;5015350;28;20056;-46
2021/12/14 02:07:08;;;;;;;2.35;1.25;;;23.20;38.80;;;;;;5007389;28;20033;-45
2021/12/14 02:09:35;;;;;;;2.20;1.15;;;23.10;38.90;;;;;;5007629;28;20030;-46
2021/12/14 02:12:09;;;;;;;1.85;1.17;;;23.10;38.80;;;;;;5007199;28;20080;-46
2021/12/14 02:14:35;;;;;;;2.10;1.20;;;23.10;38.80;;;;;;5005721;28;20088;-47
2021/12/14 02:17:05;;;;;;;2.40;1.33;;;23.10;38.90;;;;;;5006311;28;20101;-46
2021/12/14 02:19:32;;;;;;;2.22;1.10;;;23.20;38.90;;;;;;5017910;28;20041;-45
2021/12/14 02:22:00;;;;;;;1.85;1.00;;;23.10;38.90;;;;;;5026471;28;20068;-46
2021/12/14 02:24:28;;;;;;;2.33;1.27;;;23.10;38.80;;;;;;5026632;28;20029;-45
2021/12/14 02:26:55;;;;;;;2.00;1.20;;;23.10;38.80;;;;;;5026706;28;20053;-46
2021/12/14 02:29:25;;;;;;;2.45;1.30;;;23.10;38.80;;;;;;5027233;28;20531;-46
2021/12/14 02:31:52;;;;;;;2.10;1.23;;;23.00;38.70;;;;;;5027120;28;20401;-46
2021/12/14 02:34:18;;;;;;;2.00;1.20;;;23.10;38.80;;;;;;5026819;28;20029;-46
2021/12/14 02:36:48;;;;;;;2.33;1.20;;;23.10;38.70;;;;;;5027036;28;20567;-46
2021/12/14 02:40:13;;;;;;;2.72;1.38;;;23.00;38.70;;;;;;5026818;28;20612;-45
2021/12/14 02:42:15;;;;;;;2.30;1.20;;;23.10;38.70;;;;;;5027942;28;20040;-46
2021/12/14 02:44:45;;;;;;;2.42;1.10;;;23.00;38.60;;;;;;5025924;28;20021;-46
2021/12/14 02:47:13;;;;;;;2.22;1.30;;;23.00;38.70;;;;;;5026974;28;20116;-46
2021/12/14 02:49:40;;;;;;;1.50;0.90;;;23.00;38.70;;;;;;5029366;28;20104;-45
2021/12/14 02:52:24;;;;;;;2.17;1.15;;;23.00;38.70;;;;;;5046278;28;20049;-46
2021/12/14 02:54:53;;;;;;;2.47;1.33;;;23.00;38.70;;;;;;5046669;28;20037;-45
2021/12/14 02:57:26;;;;;;;1.98;1.10;;;23.00;38.70;;;;;;5046232;28;20036;-46
2021/12/14 02:59:54;;;;;;;1.60;0.90;;;23.00;38.70;;;;;;5046487;28;20032;-46
2021/12/14 03:02:23;;;;;;;2.30;1.17;;;22.90;38.70;;;;;;5035933;28;20034;-45
2021/12/14 03:05:31;;;;;;;1.52;1.02;;;22.90;38.70;;;;;;5024889;28;20103;-45
2021/12/14 03:08:08;;;;;;;1.85;1.08;;;22.90;38.70;;;;;;5006008;28;20069;-46
2021/12/14 03:11:09;;;;;;;1.65;0.85;;;22.90;38.70;;;;;;5018640;28;20701;-45
2021/12/14 03:13:31;;;;;;;2.15;1.17;;;22.90;38.70;;;;;;5023041;28;20132;-46
2021/12/14 03:16:01;;;;;;;1.95;1.10;;;22.90;38.80;;;;;;5026262;28;20021;-46
2021/12/14 03:18:34;;;;;;;2.88;1.30;;;22.90;38.70;;;;;;5024608;28;20390;-45
2021/12/14 03:21:08;;;;;;;2.05;1.10;;;22.80;38.60;;;;;;5006068;28;20030;-46
2021/12/14 03:24:01;;;;;;;2.28;1.42;;;22.90;38.70;;;;;;5024516;28;20025;-46
2021/12/14 03:26:29;;;;;;;1.80;1.00;;;22.80;38.70;;;;;;5025776;28;20022;-46
2021/12/14 03:29:00;;;;;;;2.00;0.90;;;22.90;38.70;;;;;;5026063;28;20108;-46
2021/12/14 03:31:25;;;;;;;1.85;1.10;;;22.80;38.70;;;;;;5026209;28;20026;-46
2021/12/14 03:34:02;;;;;;;1.90;1.05;;;22.90;38.80;;;;;;5025451;28;20087;-46
2021/12/14 03:36:35;;;;;;;2.22;1.02;;;22.80;38.70;;;;;;5026109;28;20037;-46
2021/12/14 03:39:36;;;;;;;1.30;0.80;;;22.80;38.60;;;;;;5024235;28;20091;-45
2021/12/14 03:42:15;;;;;;;1.48;0.90;;;22.80;38.70;;;;;;5027526;28;20053;-45
2021/12/14 03:44:47;;;;;;;2.00;1.02;;;22.80;38.70;;;;;;5025914;28;20653;-46
2021/12/14 03:47:32;;;;;;;1.77;1.00;;;22.80;38.70;;;;;;5025830;28;20061;-45
2021/12/14 03:50:03;;;;;;;2.20;1.13;;;22.80;38.60;;;;;;5030786;28;20404;-45
2021/12/14 03:52:36;;;;;;;1.38;0.80;;;22.80;38.60;;;;;;5043511;28;20090;-46
2021/12/14 03:55:26;;;;;;;1.70;1.00;;;22.80;38.70;;;;;;5006716;28;20108;-46
2021/12/14 03:57:52;;;;;;;1.70;1.10;;;22.80;38.60;;;;;;5006243;28;20041;-45
2021/12/14 04:00:26;;;;;;;2.22;1.05;;;22.80;38.60;;;;;;5025561;28;20037;-45
2021/12/14 04:02:55;;;;;;;2.13;1.20;;;22.80;38.70;;;;;;5025081;28;20650;-46
2021/12/14 04:05:22;;;;;;;1.65;0.80;;;22.80;38.70;;;;;;5024942;28;20040;-45
2021/12/14 04:07:48;;;;;;;2.25;1.10;;;22.80;38.60;;;;;;5025282;28;20026;-45
2021/12/14 04:10:21;;;;;;;1.63;0.90;;;22.80;38.60;;;;;;5025358;28;20516;-45
2021/12/14 04:12:47;;;;;;;2.00;1.10;;;22.80;38.60;;;;;;5024428;28;20065;-45
2021/12/14 04:15:13;;;;;;;1.42;0.95;;;22.80;38.70;;;;;;5025528;28;20092;-46
2021/12/14 04:17:40;;;;;;;1.52;1.00;;;22.80;38.60;;;;;;5025208;28;20033;-46
2021/12/14 04:20:29;;;;;;;2.15;0.90;;;22.70;38.60;;;;;;5011916;28;20037;-45
2021/12/14 04:22:55;;;;;;;1.65;0.98;;;22.80;38.70;;;;;;5005027;28;20026;-46
2021/12/14 04:25:25;;;;;;;1.48;0.90;;;22.80;38.70;;;;;;5005268;28;20053;-46
2021/12/14 04:27:53;;;;;;;1.70;0.93;;;22.80;38.60;;;;;;5005451;28;20734;-46
2021/12/14 04:30:22;;;;;;;1.77;0.95;;;22.70;38.60;;;;;;5005123;28;20033;-45
2021/12/14 04:32:53;;;;;;;1.77;0.98;;;22.70;38.70;;;;;;5018013;28;20057;-45
2021/12/14 04:35:19;;;;;;;1.63;0.93;;;22.70;38.60;;;;;;5010482;28;20040;-46
2021/12/14 04:37:55;;;;;;;1.42;0.88;;;22.70;38.70;;;;;;5005734;28;20053;-46
2021/12/14 04:54:18;;;;;;;1.40;0.80;;;22.70;38.60;;;;;;5044546;28;20036;-46
2021/12/14 04:56:46;;;;;;;1.88;1.00;;;22.70;38.60;;;;;;5044938;28;20036;-46
2021/12/14 04:59:11;;;;;;;1.52;0.80;;;22.60;38.60;;;;;;5033010;28;20040;-46
2021/12/14 05:01:40;;;;;;;1.65;0.88;;;22.70;38.70;;;;;;5014616;28;20767;-45
2021/12/14 05:04:10;;;;;;;2.50;1.23;;;22.60;38.60;;;;;;5023162;28;20694;-46
2021/12/14 05:09:37;;;;;;;1.58;0.82;;;22.70;38.60;;;;;;5004183;28;20058;-46
2021/12/14 05:12:09;;;;;;;1.75;1.00;;;22.60;38.80;;;;;;5024440;28;20025;-45
2021/12/14 05:14:37;;;;;;;1.60;0.90;;;22.60;38.80;;;;;;5023997;28;20026;-45
2021/12/14 05:17:07;;;;;;;1.85;1.10;;;22.70;38.80;;;;;;5024845;28;20041;-45
2021/12/14 05:19:37;;;;;;;2.00;1.00;;;22.70;38.90;;;;;;5024241;28;20033;-45
2021/12/14 05:22:11;;;;;;;1.08;0.73;;;22.70;39.00;;;;;;5024031;28;20449;-45
2021/12/14 05:24:40;;;;;;;1.90;0.80;;;22.70;39.00;;;;;;5024441;28;20034;-46
2021/12/14 05:27:09;;;;;;;1.50;0.80;;;22.60;39.00;;;;;;5023806;28;20025;-46
2021/12/14 05:29:36;;;;;;;1.98;0.98;;;22.70;39.20;;;;;;5023017;28;20033;-46
2021/12/14 05:32:04;;;;;;;1.90;1.10;;;22.70;39.20;;;;;;5023297;28;20026;-46
2021/12/14 05:34:31;;;;;;;1.73;0.70;;;22.70;39.30;;;;;;5024129;28;20037;-46
2021/12/14 05:36:58;;;;;;;0.90;0.63;;;22.80;39.20;;;;;;5026589;28;20025;-45
2021/12/14 05:39:44;;;;;;;1.95;0.93;;;22.80;39.20;;;;;;5028328;28;20033;-46
2021/12/14 05:44:41;;;;;;;1.75;0.95;;;23.00;39.30;;;;;;5028134;28;20495;-46
2021/12/14 05:47:10;;;;;;;1.83;0.93;;;23.10;39.30;;;;;;5026735;28;20087;-46
2021/12/14 05:49:39;;;;;;;1.20;0.60;;;23.10;39.20;;;;;;5024786;28;20042;-46
2021/12/14 05:52:12;;;;;;;1.58;0.90;;;23.20;39.10;;;;;;5047179;28;20142;-46
2021/12/14 05:54:38;;;;;;;1.48;0.68;;;23.30;39.00;;;;;;5047668;28;20044;-45
2021/12/14 05:57:07;;;;;;;1.52;0.80;;;23.30;38.90;;;;;;5047881;28;20041;-46
2021/12/14 05:59:34;;;;;;;2.17;0.80;;;23.50;38.90;;;;;;5031752;28;20440;-46
2021/12/14 06:02:02;;;;;;;3.15;1.17;;;23.50;38.80;;;;;;5019455;28;20029;-46
2021/12/14 06:04:34;;;;;;;2.08;0.90;;;23.50;38.70;;;;;;5027304;28;20456;-46
2021/12/14 06:07:00;;;;;;;1.30;0.70;;;23.70;38.60;;;;;;5026980;28;20038;-46
2021/12/14 06:09:29;;;;;;;1.65;0.75;;;23.80;38.50;;;;;;5023753;28;20279;-45
2021/12/14 06:12:02;;;;;;;1.42;0.70;;;23.80;38.50;;;;;;5023308;28;20153;-45
2021/12/14 06:14:30;;;;;;;1.85;1.00;;;23.90;38.50;;;;;;5022107;28;20026;-46
2021/12/14 06:17:05;;;;;;;1.65;0.75;;;24.00;38.50;;;;;;5026823;28;20106;-46
2021/12/14 06:19:37;;;;;;;1.85;0.90;;;24.10;38.60;;;;;;5024701;28;20022;-46
2021/12/14 06:22:19;;;;;;;1.75;0.75;;;24.10;38.40;;;;;;5023133;28;20505;-45
2021/12/14 06:24:48;;;;;;;1.52;0.70;;;24.20;38.30;;;;;;5026914;28;20021;-46
2021/12/14 06:27:18;;;;;;;2.42;0.90;;;24.30;38.30;;;;;;5026068;28;20298;-46
2021/12/14 06:30:04;;;;;;;5.15;1.33;;;24.30;38.10;;;;;;5023106;28;20547;-45
2021/12/14 06:32:38;;;;;;;1.58;0.80;;;24.40;38.20;;;;;;5024482;28;20052;-45
2021/12/14 06:35:12;;;;;;;2.33;0.90;;;24.50;38.30;;;;;;5024531;28;20537;-45
2021/12/14 06:40:35;;;;;;;2.05;0.82;;;24.60;38.20;;;;;;5022665;28;20029;-45
2021/12/14 06:43:04;;;;;;;2.58;1.25;;;24.60;38.20;;;;;;5024483;28;20662;-44
2021/12/14 06:45:43;;;;;;;3.95;1.05;;;24.70;38.60;;;;;;5025610;28;20118;-45
2021/12/14 06:48:20;;;;;;;3.05;1.15;;;24.70;39.00;;;;;;5025484;28;20175;-45
2021/12/14 06:50:57;;;;;;;2.97;1.40;;;24.70;39.10;;;;;;5025505;28;20025;-46
2021/12/14 06:53:24;;;;;;;3.00;1.13;;;24.80;39.20;;;;;;5023990;28;20087;-46
2021/12/14 06:55:52;;;;;;;3.10;1.33;;;24.80;39.50;;;;;;5026028;28;20028;-47
2021/12/14 06:58:25;;;;;;;2.25;1.20;;;24.80;39.40;;;;;;5025768;28;20052;-47
2021/12/14 07:00:59;;;;;;;2.08;1.17;;;24.90;40.20;;;;;;5025449;28;20033;-47
2021/12/14 07:03:42;;;;;;;3.05;1.20;;;24.90;40.30;;;;;;5025011;28;20016;-49
2021/12/14 07:06:11;;;;;;;2.53;1.30;;;24.90;40.00;;;;;;5025235;28;20029;-47
2021/12/14 07:08:37;;;;;;;2.22;1.15;;;24.90;40.10;;;;;;5024714;28;20029;-48
2021/12/14 07:11:03;;;;;;;3.10;1.35;;;25.00;40.10;;;;;;5025508;28;20040;-47
2021/12/14 07:13:36;;;;;;;3.22;1.30;;;25.00;40.00;;;;;;5024571;28;20026;-48
2021/12/14 07:16:22;;;;;;;2.97;1.42;;;25.00;39.80;;;;;;5020671;28;20348;-48
2021/12/14 07:18:52;;;;;;;4.00;1.23;;;25.00;39.50;;;;;;5020610;28;20037;-47
2021/12/14 07:21:53;;;;;;;3.53;1.30;;;25.00;39.40;;;;;;5016788;28;20084;-47
2021/12/14 07:24:22;;;;;;;3.40;1.23;;;25.10;39.20;;;;;;5028859;28;20025;-47
2021/12/14 07:26:50;;;;;;;3.47;1.25;;;25.00;38.90;;;;;;5025856;28;20041;-47
2021/12/14 07:29:23;;;;;;;3.33;1.60;;;25.10;38.60;;;;;;5024177;28;20021;-48
2021/12/14 07:31:49;;;;;;;3.92;1.77;;;25.10;38.50;;;;;;5023556;28;20521;-47
2021/12/14 07:34:15;;;;;;;2.88;1.40;;;25.10;38.30;;;;;;5023677;28;20087;-47
2021/12/14 07:36:41;;;;;;;3.55;1.33;;;25.10;38.20;;;;;;5022918;28;20116;-47
2021/12/14 07:39:11;;;;;;;4.72;1.50;;;25.20;38.10;;;;;;5024534;28;20513;-47
2021/12/14 07:41:43;;;;;;;3.03;1.20;;;25.20;37.80;;;;;;5022473;28;20116;-48
2021/12/14 07:44:22;;;;;;;2.73;1.40;;;25.20;37.80;;;;;;5022404;28;20018;-47
2021/12/14 07:47:07;;;;;;;2.30;1.30;;;25.20;37.70;;;;;;5022935;28;20533;-47
2021/12/14 07:49:40;;;;;;;3.17;1.50;;;25.20;37.60;;;;;;5022273;28;20565;-48
2021/12/14 07:52:15;;;;;;;2.33;1.30;;;25.30;37.50;;;;;;5023288;28;20095;-47
2021/12/14 07:54:43;;;;;;;2.92;1.40;;;25.20;37.50;;;;;;5022180;28;20033;-46
2021/12/14 07:57:28;;;;;;;4.10;1.50;;;25.20;37.40;;;;;;5024004;28;20032;-47
2021/12/14 07:59:55;;;;;;;2.75;1.30;;;25.30;37.30;;;;;;5022059;28;20033;-48
2021/12/14 08:02:37;;;;;;;3.35;1.60;;;25.30;37.30;;;;;;5023436;28;20426;-47
2021/12/14 08:05:17;;;;;;;2.47;1.23;;;25.30;37.30;;;;;;5024755;28;20034;-47
2021/12/14 08:07:59;;;;;;;3.20;1.33;;;25.30;37.40;;;;;;5024570;28;20173;-48
2021/12/14 08:10:29;;;;;;;2.30;0.90;;;25.30;37.30;;;;;;5024755;28;20022;-47
2021/12/14 08:13:03;;;;;;;4.22;1.50;;;25.30;37.40;;;;;;5021879;28;20512;-48
2021/12/14 08:15:49;;;;;;;2.25;1.02;;;25.30;37.30;;;;;;5018327;28;20033;-47
2021/12/14 08:18:29;;;;;;;2.03;0.93;;;25.30;37.30;;;;;;5012661;28;20037;-48
2021/12/14 08:21:00;;;;;;;2.67;1.23;;;25.30;37.30;;;;;;5018806;28;20095;-46
2021/12/14 08:23:30;;;;;;;3.03;1.58;;;25.30;37.30;;;;;;5024451;28;20096;-46
2021/12/14 08:26:09;;;;;;;3.78;1.67;;;25.40;37.20;;;;;;5024482;28;20025;-46
2021/12/14 08:28:49;;;;;;;2.40;1.20;;;25.40;37.30;;;;;;5024805;28;20083;-47
2021/12/14 08:31:16;;;;;;;2.53;1.13;;;25.40;37.20;;;;;;5024732;28;20405;-47
2021/12/14 08:33:41;;;;;;;2.60;1.40;;;25.40;37.80;;;;;;5023846;28;20061;-47
2021/12/14 08:36:11;;;;;;;3.10;1.15;;;25.40;37.10;;;;;;5024374;28;20040;-47
2021/12/14 08:38:37;;;;;;;2.08;1.10;;;25.40;37.10;;;;;;5016512;28;20242;-47
2021/12/14 08:41:14;;;;;;;3.78;1.60;;;25.40;37.10;;;;;;5002707;28;20030;-47
2021/12/14 08:43:47;;;;;;;3.08;1.35;;;25.40;37.10;;;;;;5007969;28;20700;-47
2021/12/14 08:46:29;;;;;;;2.67;1.10;;;25.40;37.10;;;;;;5024561;28;20025;-47
2021/12/14 08:49:01;;;;;;;2.53;1.17;;;25.50;37.10;;;;;;5024242;28;20526;-46
2021/12/14 08:51:35;;;;;;;2.60;1.25;;;25.50;37.00;;;;;;5014819;28;20037;-48
2021/12/14 08:54:06;;;;;;;2.42;1.10;;;25.50;37.10;;;;;;5002287;28;20034;-48
2021/12/14 08:56:35;;;;;;;3.10;1.35;;;25.50;37.00;;;;;;5022783;28;20040;-47
2021/12/14 08:59:02;;;;;;;2.60;1.20;;;25.50;37.00;;;;;;5023898;28;20826;-47
2021/12/14 09:01:30;;;;;;;2.97;1.00;;;25.50;37.70;;;;;;5023985;28;20044;-48
2021/12/14 09:04:21;;;;;;;3.72;1.40;;;25.50;37.00;;;;;;5023385;28;20026;-46
2021/12/14 09:06:52;;;;;;;3.03;1.40;;;25.50;37.00;;;;;;5022669;28;20040;-47
2021/12/14 09:09:21;;;;;;;2.95;1.38;;;25.50;37.00;;;;;;5024376;28;20041;-46
2021/12/14 09:11:54;;;;;;;3.80;1.50;;;25.50;36.90;;;;;;5020235;28;20088;-47
2021/12/14 09:14:19;;;;;;;2.00;1.00;;;25.50;36.90;;;;;;5008202;28;20671;-47
2021/12/14 09:16:50;;;;;;;2.58;0.98;;;25.50;36.90;;;;;;5027390;28;20033;-48
2021/12/14 09:19:28;;;;;;;2.22;1.20;;;25.50;36.90;;;;;;5026255;28;20026;-47
2021/12/14 09:21:57;;;;;;;2.85;1.50;;;25.50;36.80;;;;;;5007532;28;20041;-47
2021/12/14 09:24:26;;;;;;;3.95;1.20;;;25.60;36.80;;;;;;5008180;28;20029;-47
2021/12/14 09:26:59;;;;;;;2.95;1.30;;;25.50;36.80;;;;;;5007741;28;20116;-47
2021/12/14 09:29:27;;;;;;;2.33;1.10;;;25.50;36.80;;;;;;5011582;28;20437;-47
2021/12/14 09:31:56;;;;;;;2.40;1.20;;;25.50;36.80;;;;;;5025732;28;20029;-47
2021/12/14 09:34:24;;;;;;;3.15;1.30;;;25.60;36.90;;;;;;5025063;28;20036;-47
2021/12/14 09:36:51;;;;;;;2.78;1.30;;;25.60;36.90;;;;;;5027202;28;20034;-48
2021/12/14 09:39:35;;;;;;;3.65;1.65;;;25.50;36.80;;;;;;5026828;28;20087;-48
2021/12/14 09:42:06;;;;;;;2.35;0.95;;;25.60;36.80;;;;;;5027164;28;20116;-48
2021/12/14 09:44:36;;;;;;;2.10;1.15;;;25.50;36.80;;;;;;5013949;28;20026;-48
2021/12/14 09:47:10;;;;;;;2.67;1.15;;;25.50;36.80;;;;;;5017299;28;20090;-47
2021/12/14 09:49:37;;;;;;;2.72;1.20;;;25.50;36.80;;;;;;5029517;28;20104;-47
2021/12/14 09:52:25;;;;;;;1.63;0.77;;;25.50;36.70;;;;;;5047486;28;20112;-48
2021/12/14 09:54:52;;;;;;;2.42;1.10;;;25.50;36.80;;;;;;5047222;28;20033;-47
2021/12/14 09:57:26;;;;;;;2.15;1.00;;;25.50;36.70;;;;;;5047320;28;20029;-47
2021/12/14 09:59:53;;;;;;;1.85;0.77;;;25.50;36.80;;;;;;5047329;28;20433;-48
2021/12/14 10:02:30;;;;;;;2.42;1.10;;;25.50;36.80;;;;;;5037473;28;20033;-48
2021/12/14 10:05:05;;;;;;;2.20;1.00;;;25.50;36.80;;;;;;5015102;28;20071;-48
2021/12/14 10:07:30;;;;;;;2.20;0.98;;;25.50;36.80;;;;;;5021872;28;20306;-46
2021/12/14 10:09:58;;;;;;;2.10;1.00;;;25.50;36.60;;;;;;5007015;28;20514;-47
2021/12/14 10:15:16;;;;;;;5.03;1.70;;;25.50;36.70;;;;;;5026414;28;20029;-47
2021/12/14 10:17:44;;;;;;;2.15;1.00;;;25.50;36.70;;;;;;5014975;28;20541;-48
2021/12/14 10:20:16;;;;;;;3.03;1.08;;;25.50;36.70;;;;;;5019181;28;20034;-47
2021/12/14 10:22:43;;;;;;;2.58;1.02;;;25.50;36.70;;;;;;5024271;28;20390;-47
2021/12/14 10:25:13;;;;;;;1.80;1.00;;;25.50;36.70;;;;;;5026815;28;20095;-47
2021/12/14 10:27:39;;;;;;;3.65;1.40;;;25.50;37.40;;;;;;5026436;28;20021;-47
2021/12/14 10:30:14;;;;;;;2.00;1.10;;;25.50;36.70;;;;;;5025423;28;20096;-48
2021/12/14 10:32:40;;;;;;;2.95;1.27;;;25.40;36.70;;;;;;5024954;28;20536;-46
2021/12/14 10:35:12;;;;;;;2.28;1.10;;;25.50;36.70;;;;;;5025958;28;20123;-48
2021/12/14 10:43:13;;;;;;;2.33;1.20;;;25.40;36.80;;;;;;5025845;28;20076;-47
2021/12/14 10:45:42;;;;;;;2.30;0.88;;;25.40;36.90;;;;;;5006516;28;20561;-47
2021/12/14 10:48:09;;;;;;;1.55;0.77;;;25.40;36.90;;;;;;5006497;28;20045;-45
2021/12/14 10:50:38;;;;;;;3.05;1.00;;;25.40;36.90;;;;;;5027434;28;20033;-48
2021/12/14 10:53:08;;;;;;;2.05;1.00;;;25.40;36.90;;;;;;5045048;28;20096;-47
2021/12/14 10:55:42;;;;;;;2.00;1.00;;;25.40;36.80;;;;;;5044042;28;20106;-47
2021/12/14 10:58:08;;;;;;;1.60;0.80;;;25.40;37.00;;;;;;5016066;28;20026;-47
2021/12/14 11:01:00;;;;;;;2.65;1.20;;;25.40;36.90;;;;;;5017120;28;20048;-46
2021/12/14 11:03:35;;;;;;;3.38;1.15;;;25.40;37.00;;;;;;5007500;28;20076;-46
2021/12/14 11:06:06;;;;;;;1.50;0.82;;;25.40;37.00;;;;;;5025277;28;20025;-47
2021/12/14 11:10:59;;;;;;;1.98;1.00;;;25.40;37.00;;;;;;5025677;28;20131;-46
2021/12/14 11:13:24;;;;;;;1.75;0.90;;;25.40;37.00;;;;;;5025577;28;20032;-46
2021/12/14 11:15:54;;;;;;;2.35;1.10;;;25.30;37.00;;;;;;5025682;28;20025;-46
2021/12/14 11:18:26;;;;;;;2.25;0.90;;;25.30;37.00;;;;;;5025353;28;20022;-47
2021/12/14 11:20:57;;;;;;;1.47;0.70;;;25.30;37.00;;;;;;5027149;28;20116;-47
2021/12/14 11:23:31;;;;;;;1.80;1.02;;;25.30;37.00;;;;;;5033750;28;20025;-47
2021/12/14 11:25:56;;;;;;;2.00;1.00;;;25.30;37.30;;;;;;5029436;28;20068;-47
2021/12/14 11:28:30;;;;;;;3.47;0.90;;;25.30;37.40;;;;;;5023711;28;20018;-47
2021/12/14 11:31:17;;;;;;;2.08;1.10;;;25.30;37.40;;;;;;5025466;28;20022;-48
2021/12/14 11:34:01;;;;;;;1.92;0.82;;;25.30;37.30;;;;;;5014336;28;20721;-47
2021/12/14 11:36:37;;;;;;;1.80;0.80;;;25.20;37.40;;;;;;5020134;28;20389;-47
2021/12/14 11:39:23;;;;;;;1.42;0.70;;;25.30;37.40;;;;;;5028232;28;20044;-47
2021/12/14 11:42:19;;;;;;;2.38;1.00;;;25.20;37.50;;;;;;5028288;28;20719;-46
2021/12/14 11:44:59;;;;;;;2.05;1.05;;;25.30;37.60;;;;;;5011196;28;20030;-47
2021/12/14 11:50:01;;;;;;;;;;;25.30;37.80;;;;;;5007479;28;20470;-46
2021/12/14 11:52:50;;;;;;;1.17;0.60;;;25.20;37.90;;;;;;5004853;28;19917;-46
2021/12/14 11:55:16;;;;;;;2.63;1.10;;;25.20;38.80;;;;;;5007076;28;20437;-47
2021/12/14 11:57:42;;;;;;;2.60;1.35;;;25.30;38.40;;;;;;5014755;28;20045;-48
2021/12/14 12:00:14;;;;;;;1.98;1.00;;;25.20;38.60;;;;;;5005409;28;20029;-46
2021/12/14 12:02:40;;;;;;;2.45;1.25;;;25.30;38.80;;;;;;5015415;28;20033;-47
2021/12/14 12:05:23;;;;;;;2.90;1.23;;;25.30;39.20;;;;;;5024471;28;20035;-47
2021/12/14 12:10:45;;;;;;;2.22;1.00;;;25.30;39.40;;;;;;5025086;28;20067;-47
2021/12/14 12:13:11;;;;;;;2.58;1.10;;;25.30;39.40;;;;;;5021710;28;20021;-47
2021/12/14 12:15:41;;;;;;;2.38;1.00;;;25.30;39.60;;;;;;5022821;28;20040;-47
2021/12/14 12:18:07;;;;;;;1.98;1.17;;;25.30;39.60;;;;;;5024212;28;20036;-46
2021/12/14 12:20:45;;;;;;;4.03;1.15;;;25.30;39.80;;;;;;5024558;28;20026;-47
2021/12/14 12:23:15;;;;;;;1.63;0.90;;;25.30;39.80;;;;;;5024283;28;20112;-47
2021/12/14 12:25:46;;;;;;;3.10;1.60;;;25.30;39.80;;;;;;5024798;28;20026;-48
2021/12/14 12:28:25;;;;;;;3.05;1.60;;;25.30;39.60;;;;;;5024623;28;20625;-46
2021/12/14 12:31:00;;;;;;;2.60;1.40;;;25.30;39.50;;;;;;5023293;28;20029;-47
2021/12/14 12:33:29;;;;;;;3.72;1.80;;;25.30;39.50;;;;;;5023337;28;20049;-48
2021/12/14 12:35:57;;;;;;;3.33;1.77;;;25.30;39.40;;;;;;5013217;28;20101;-48
2021/12/14 12:38:37;;;;;;;4.85;2.20;;;25.30;39.40;;;;;;5008744;28;20025;-46
2021/12/14 12:41:28;;;;;;;4.13;2.47;;;25.30;39.40;;;;;;5024403;28;20033;-47
2021/12/14 12:44:35;;;;;;;3.78;2.08;;;25.30;39.30;;;;;;5024090;28;20024;-48
2021/12/14 12:47:11;;;;;;;4.78;2.72;;;25.30;39.20;;;;;;5024532;28;20089;-49
2021/12/14 12:49:49;;;;;;;5.03;2.88;;;25.30;39.20;;;;;;5040714;28;20033;-47
2021/12/14 12:52:32;;;;;;;5.00;2.67;;;25.30;39.20;;;;;;5017687;28;20152;-46
2021/12/14 12:54:58;;;;;;;5.22;2.60;;;25.20;39.20;;;;;;5004490;28;20034;-48
2021/12/14 12:57:31;;;;;;;5.53;3.13;;;25.30;39.00;;;;;;5004425;28;20718;-48
2021/12/14 13:00:00;;;;;;;;;;;25.30;39.10;;;;;;5004223;28;20038;-46
2021/12/14 13:02:29;;;;;;;4.60;2.80;;;25.20;39.00;;;;;;5012713;28;19936;-47
2021/12/14 13:04:59;;;;;;;5.72;3.28;;;25.20;38.90;;;;;;5026051;28;20029;-48
2021/12/14 13:07:34;;;;;;;5.88;3.67;;;25.30;38.90;;;;;;5023229;28;20053;-46
2021/12/14 13:10:27;;;;;;;5.78;3.40;;;25.20;38.80;;;;;;5011189;28;20031;-47
2021/12/14 13:13:00;;;;;;;5.78;3.40;;;25.30;38.80;;;;;;5020862;28;20124;-46
2021/12/14 13:15:38;;;;;;;5.95;3.88;;;25.20;38.80;;;;;;5024240;28;20101;-46
2021/12/14 13:18:19;;;;;;;6.63;3.70;;;25.20;38.80;;;;;;5027165;28;20033;-48
2021/12/14 13:20:48;;;;;;;6.47;3.70;;;25.20;38.70;;;;;;5021768;28;20021;-48
2021/12/14 13:23:14;;;;;;;6.70;3.55;;;25.20;38.70;;;;;;5021265;28;20447;-47
2021/12/14 13:25:43;;;;;;;5.70;3.67;;;25.20;38.70;;;;;;5023281;28;20033;-47
2021/12/14 13:28:10;;;;;;;5.82;3.60;;;25.20;38.70;;;;;;5023559;28;20723;-46
2021/12/14 13:30:36;;;;;;;6.47;4.05;;;25.20;39.30;;;;;;5022909;28;20057;-47
2021/12/14 13:33:02;;;;;;;6.95;4.38;;;25.20;38.80;;;;;;5021802;28;20139;-49
2021/12/14 13:35:35;;;;;;;6.32;3.83;;;25.20;39.40;;;;;;5023532;28;20588;-47
2021/12/14 13:38:02;;;;;;;;;;;25.20;38.80;;;;;;5018085;28;20517;-48
2021/12/14 13:40:36;;;;;;;5.85;3.65;;;25.20;38.70;;;;;;5013074;28;20331;-48
2021/12/14 13:43:11;;;;;;;7.03;3.97;;;25.10;38.80;;;;;;5011730;28;20123;-47
2021/12/14 13:45:51;;;;;;;6.72;4.47;;;25.20;39.00;;;;;;5023796;28;20037;-48
2021/12/14 13:48:33;;;;;;;6.35;4.25;;;25.10;38.90;;;;;;5018440;28;20026;-46
2021/12/14 13:51:06;;;;;;;7.38;4.75;;;25.20;38.80;;;;;;5018724;28;20738;-47
2021/12/14 13:53:32;;;;;;;8.48;4.50;;;25.20;38.90;;;;;;5018984;28;20033;-47
2021/12/14 13:56:02;;;;;;;6.93;4.82;;;25.20;39.00;;;;;;5020945;28;20029;-47
2021/12/14 13:58:31;;;;;;;5.65;3.55;;;25.20;38.80;;;;;;5026838;28;20033;-48
2021/12/14 14:01:13;;;;;;;7.03;4.53;;;25.20;38.70;;;;;;5024914;28;20068;-47